Time;durP1;ratioP1;P1;durP2;ratioP2;P2;SDS_P1;SDS_P2;PMS_P1;PMS_P2;Temp;Humidity;BMP_temperature;BMP_pressure;BME280_temperature;BME280_humidity;BME280_pressure;Samples;Min_cycle;Max_cycle;Signal;HPM_P1;HPM_P2
2023/07/15 00:01:05;;;;;;;3.78;2.10;;;;;;;22.53;71.25;99462.47;5085443;28;20430;-63
2023/07/15 00:03:31;;;;;;;4.15;1.98;;;;;;;22.50;69.63;99460.00;5086958;28;20036;-63
2023/07/15 00:05:57;;;;;;;3.13;2.10;;;;;;;22.54;68.16;99458.72;5088090;28;20077;-63
2023/07/15 00:08:22;;;;;;;4.35;2.25;;;;;;;22.60;68.22;99450.03;5086977;28;20028;-64
2023/07/15 00:10:48;;;;;;;3.33;2.00;;;;;;;22.64;69.39;99451.47;5089416;28;20101;-63
2023/07/15 00:13:16;;;;;;;4.30;1.92;;;;;;;22.56;70.49;99440.47;5088893;28;20108;-63
2023/07/15 00:15:43;;;;;;;7.03;2.05;;;;;;;22.58;69.57;99449.34;5087862;28;20027;-63
2023/07/15 00:18:14;;;;;;;4.15;2.47;;;;;;;22.53;70.52;99440.78;5088876;28;20040;-63
2023/07/15 00:20:47;;;;;;;5.57;2.05;;;;;;;22.53;71.94;99439.91;5076741;28;20048;-63
2023/07/15 00:23:21;;;;;;;3.38;2.13;;;;;;;22.46;72.72;99439.56;5087361;28;20412;-63
2023/07/15 00:25:48;;;;;;;4.63;2.65;;;;;;;22.40;71.94;99444.69;5088329;28;20032;-63
2023/07/15 00:28:14;;;;;;;5.15;2.63;;;;;;;22.38;72.70;99439.41;5088042;28;20036;-63
2023/07/15 00:30:40;;;;;;;5.60;2.88;;;;;;;22.26;73.84;99436.94;5084053;28;20403;-63
2023/07/15 00:33:12;;;;;;;4.25;2.70;;;;;;;22.25;74.02;99455.06;5087935;28;20035;-63
2023/07/15 00:35:37;;;;;;;4.68;2.30;;;;;;;22.16;74.40;99447.72;5089271;28;20277;-63
2023/07/15 00:38:02;;;;;;;6.35;2.85;;;;;;;22.15;74.23;99448.72;5088141;28;20106;-63
2023/07/15 00:40:31;;;;;;;5.40;2.58;;;;;;;22.10;74.71;99451.00;5089478;28;20035;-63
2023/07/15 00:43:34;;;;;;;3.55;2.25;;;;;;;21.99;75.30;99451.09;5088230;28;20487;-62
2023/07/15 00:46:18;;;;;;;4.53;2.35;;;;;;;21.91;75.70;99454.44;5088393;28;20032;-63
2023/07/15 00:48:56;;;;;;;4.55;2.28;;;;;;;21.84;76.59;99447.88;5086951;28;20023;-63
2023/07/15 00:51:22;;;;;;;4.78;2.50;;;;;;;21.72;78.05;99434.50;5086367;28;20035;-63
2023/07/15 00:53:49;;;;;;;5.22;2.95;;;;;;;21.73;78.83;99449.78;5086680;28;20054;-63
2023/07/15 00:56:16;;;;;;;6.90;3.28;;;;;;;21.68;79.57;99458.28;5085302;28;20119;-63
2023/07/15 00:58:41;;;;;;;5.85;3.05;;;;;;;21.64;79.91;99445.16;5085711;28;20020;-63
2023/07/15 01:01:10;;;;;;;4.35;2.35;;;;;;;21.57;79.84;99452.94;5086575;28;20100;-63
2023/07/15 01:03:39;;;;;;;3.65;2.55;;;;;;;21.48;79.06;99458.28;5075735;28;20389;-63
2023/07/15 01:06:06;;;;;;;5.38;2.92;;;;;;;21.41;78.90;99454.38;5068679;28;20111;-63
2023/07/15 01:08:31;;;;;;;4.10;2.25;;;;;;;21.35;78.92;99450.34;5068241;28;20517;-63
2023/07/15 01:10:56;;;;;;;5.40;2.60;;;;;;;21.34;80.00;99453.19;5077056;28;20031;-63
2023/07/15 01:13:22;;;;;;;4.30;2.45;;;;;;;21.30;80.46;99451.75;5090940;28;20032;-63
2023/07/15 01:15:47;;;;;;;6.53;2.67;;;;;;;21.29;81.22;99450.03;5092253;28;20024;-63
2023/07/15 01:18:13;;;;;;;4.38;2.40;;;;;;;21.28;81.27;99451.88;5090901;28;20089;-64
2023/07/15 01:20:39;;;;;;;3.78;2.35;;;;;;;21.27;81.61;99452.03;5090506;28;20097;-64
2023/07/15 01:23:04;;;;;;;3.72;2.33;;;;;;;21.32;80.97;99449.75;5091061;28;20020;-63
2023/07/15 01:25:30;;;;;;;3.90;2.42;;;;;;;21.40;80.48;99456.22;5090041;28;20020;-63
2023/07/15 01:27:55;;;;;;;5.10;2.25;;;;;;;21.44;81.03;99454.13;5091109;28;20445;-63
2023/07/15 01:30:21;;;;;;;3.88;2.30;;;;;;;21.47;81.70;99461.97;5091254;28;20020;-64
2023/07/15 01:32:47;;;;;;;5.60;2.90;;;;;;;21.45;81.34;99456.69;5091894;28;20438;-63
2023/07/15 01:35:12;;;;;;;8.15;2.60;;;;;;;21.47;81.46;99449.31;5091322;28;20028;-63
2023/07/15 01:37:38;;;;;;;4.35;2.13;;;;;;;21.48;81.31;99452.88;5091977;28;20031;-63
2023/07/15 01:40:06;;;;;;;3.83;2.75;;;;;;;21.47;79.38;99448.44;5091178;28;20032;-64
2023/07/15 01:42:31;;;;;;;3.75;2.35;;;;;;;21.57;78.52;99450.22;5091111;28;20042;-63
2023/07/15 01:44:57;;;;;;;5.25;2.45;;;;;;;21.63;79.21;99449.69;5090610;28;20547;-63
2023/07/15 01:47:22;;;;;;;4.32;2.33;;;;;;;21.67;79.34;99451.16;5080630;28;20075;-64
2023/07/15 01:49:48;;;;;;;6.97;2.60;;;;;;;21.69;79.24;99453.72;5070755;28;20028;-64
2023/07/15 01:52:14;;;;;;;5.57;2.72;;;;;;;21.69;78.65;99448.31;5085480;28;20024;-64
2023/07/15 01:54:39;;;;;;;3.72;2.40;;;;;;;21.72;78.60;99454.31;5090562;28;20047;-63
2023/07/15 01:57:05;;;;;;;7.80;2.60;;;;;;;21.73;78.32;99439.78;5090223;28;20035;-63
2023/07/15 01:59:31;;;;;;;4.85;2.45;;;;;;;21.75;78.26;99453.19;5089811;28;20032;-63
2023/07/15 02:01:57;;;;;;;5.60;2.40;;;;;;;21.75;78.20;99445.06;5091223;28;20107;-63
2023/07/15 02:04:23;;;;;;;5.03;2.75;;;;;;;21.78;77.21;99450.25;5086058;28;20044;-63
2023/07/15 02:06:49;;;;;;;4.68;2.75;;;;;;;21.81;76.12;99439.16;5091329;28;20059;-63
2023/07/15 02:09:14;;;;;;;4.95;2.60;;;;;;;21.83;76.23;99435.31;5090457;28;20376;-63
2023/07/15 02:11:40;;;;;;;5.32;2.22;;;;;;;21.83;76.54;99429.03;5091232;28;20028;-63
2023/07/15 02:14:07;;;;;;;3.70;2.53;;;;;;;21.80;76.66;99429.31;5090046;28;20020;-63
2023/07/15 02:16:32;;;;;;;4.78;2.85;;;;;;;21.77;77.27;99435.00;5087227;28;20462;-63
2023/07/15 02:18:58;;;;;;;3.33;2.28;;;;;;;21.70;77.48;99428.34;5088888;28;20035;-63
2023/07/15 02:21:25;;;;;;;5.53;2.95;;;;;;;21.66;77.16;99424.22;5089947;28;20452;-63
2023/07/15 02:23:52;;;;;;;5.07;3.20;;;;;;;21.67;77.22;99424.09;5089720;28;20360;-63
2023/07/15 02:26:17;;;;;;;5.03;3.08;;;;;;;21.69;77.97;99429.38;5088310;28;20016;-63
2023/07/15 02:28:43;;;;;;;5.47;2.60;;;;;;;21.67;78.16;99417.81;5090677;28;20589;-63
2023/07/15 02:31:09;;;;;;;4.10;2.78;;;;;;;21.67;77.76;99417.81;5089692;28;20032;-63
2023/07/15 02:33:34;;;;;;;5.00;2.63;;;;;;;21.63;78.58;99410.97;5084493;28;20043;-63
2023/07/15 02:36:00;;;;;;;4.00;2.65;;;;;;;21.57;78.97;99406.06;5089984;28;20020;-63
2023/07/15 02:38:25;;;;;;;5.53;2.67;;;;;;;21.54;79.79;99400.91;5089298;28;20034;-63
2023/07/15 02:40:51;;;;;;;3.80;2.40;;;;;;;21.51;80.67;99391.25;5088659;28;20020;-63
2023/07/15 02:43:19;;;;;;;3.50;2.17;;;;;;;21.49;81.82;99397.75;5088613;28;20137;-63
2023/07/15 02:45:47;;;;;;;4.80;2.72;;;;;;;21.47;82.90;99391.63;5087834;28;20525;-63
2023/07/15 02:48:12;;;;;;;4.93;2.70;;;;;;;21.45;83.88;99393.63;5089707;28;20024;-63
2023/07/15 02:50:38;;;;;;;5.97;3.17;;;;;;;21.40;84.03;99398.56;5089558;28;20491;-63
2023/07/15 02:53:03;;;;;;;5.22;3.00;;;;;;;21.37;83.84;99401.50;5088764;28;20030;-63
2023/07/15 02:55:30;;;;;;;4.68;2.38;;;;;;;21.34;83.79;99393.66;5089587;28;20039;-63
2023/07/15 02:57:55;;;;;;;6.72;2.70;;;;;;;21.32;83.99;99391.09;5089928;28;20027;-63
2023/07/15 03:00:22;;;;;;;3.75;2.42;;;;;;;21.29;83.13;99391.38;5090796;28;20020;-63
2023/07/15 03:02:47;;;;;;;4.75;2.42;;;;;;;21.30;83.77;99386.81;5090448;28;20031;-63
2023/07/15 03:05:14;;;;;;;5.53;2.90;;;;;;;21.27;84.03;99390.63;5089463;28;20421;-63
2023/07/15 03:07:44;;;;;;;4.75;2.70;;;;;;;21.23;84.30;99385.63;5089933;28;20403;-63
2023/07/15 03:10:14;;;;;;;3.72;2.47;;;;;;;21.18;84.23;99371.63;5088182;28;20036;-63
2023/07/15 03:12:40;;;;;;;4.15;2.63;;;;;;;21.16;84.44;99373.63;5088814;28;20016;-63
2023/07/15 03:15:06;;;;;;;5.10;2.63;;;;;;;21.14;84.24;99381.00;5088924;28;20038;-64
2023/07/15 03:17:35;;;;;;;5.25;2.60;;;;;;;21.08;83.87;99373.41;5088984;28;20120;-64
2023/07/15 03:20:22;;;;;;;4.68;2.70;;;;;;;21.04;84.06;99374.69;5088991;28;20046;-63
2023/07/15 03:22:49;;;;;;;10.60;3.15;;;;;;;20.98;83.72;99370.66;5088249;28;20390;-63
2023/07/15 03:25:15;;;;;;;6.97;2.95;;;;;;;20.91;84.14;99364.88;5089463;28;20099;-62
2023/07/15 03:27:41;;;;;;;4.75;2.88;;;;;;;20.79;84.72;99360.50;5089699;28;20024;-63
2023/07/15 03:30:07;;;;;;;6.90;2.80;;;;;;;20.80;85.21;99372.19;5089329;28;20024;-63
2023/07/15 03:32:45;;;;;;;4.22;2.60;;;;;;;20.74;85.70;99373.53;5089464;28;20023;-63
2023/07/15 03:35:11;;;;;;;5.00;2.50;;;;;;;20.72;86.22;99375.50;5088403;28;20109;-63
2023/07/15 03:37:41;;;;;;;3.20;2.40;;;;;;;20.68;86.42;99375.91;5088672;28;20268;-63
2023/07/15 03:40:10;;;;;;;4.40;2.80;;;;;;;20.58;87.67;99372.25;5086156;28;20103;-63
2023/07/15 03:42:39;;;;;;;5.75;3.00;;;;;;;20.51;88.21;99365.66;5086906;28;20422;-63
2023/07/15 03:45:05;;;;;;;4.82;2.70;;;;;;;20.42;88.28;99372.69;5088721;28;20111;-63
2023/07/15 03:47:32;;;;;;;6.55;2.85;;;;;;;20.36;89.53;99383.13;5087642;28;20113;-63
2023/07/15 03:49:58;;;;;;;4.72;3.25;;;;;;;20.07;90.26;99350.38;5086550;28;20094;-63
2023/07/15 03:52:24;;;;;;;6.45;3.30;;;;;;;20.21;90.00;99385.25;5086754;28;20028;-63
2023/07/15 03:54:49;;;;;;;4.60;2.85;;;;;;;20.25;90.84;99393.94;5086717;28;20028;-63
2023/07/15 03:57:15;;;;;;;4.82;3.08;;;;;;;20.20;90.76;99398.84;5087402;28;20031;-63
2023/07/15 03:59:40;;;;;;;6.30;3.30;;;;;;;20.15;91.56;99395.69;5086582;28;20039;-63
2023/07/15 04:02:06;;;;;;;5.72;3.00;;;;;;;20.09;91.85;99390.75;5087341;28;20038;-63
2023/07/15 04:04:31;;;;;;;5.32;2.72;;;;;;;19.88;91.97;99363.66;5087599;28;20059;-63
2023/07/15 04:07:01;;;;;;;9.35;3.25;;;;;;;20.08;92.19;99395.28;5082984;28;20099;-63
2023/07/15 04:09:26;;;;;;;6.03;3.03;;;;;;;20.09;92.28;99390.75;5085964;28;20111;-63
2023/07/15 04:11:52;;;;;;;5.53;2.85;;;;;;;20.08;92.39;99384.47;5088194;28;20201;-63
2023/07/15 04:14:17;;;;;;;7.03;2.70;;;;;;;20.15;92.87;99387.56;5085764;28;20069;-63
2023/07/15 04:16:43;;;;;;;8.77;2.78;;;;;;;20.20;92.66;99378.13;5087676;28;20364;-63
2023/07/15 04:19:09;;;;;;;5.30;2.70;;;;;;;20.24;92.98;99390.41;5086426;28;20057;-63
2023/07/15 04:21:35;;;;;;;4.72;3.15;;;;;;;20.27;92.63;99378.47;5088479;28;20032;-63
2023/07/15 04:24:01;;;;;;;4.30;2.95;;;;;;;20.45;91.65;99376.97;5088804;28;20341;-63
2023/07/15 04:26:27;;;;;;;4.90;3.13;;;;;;;20.59;90.62;99377.53;5088417;28;20056;-63
2023/07/15 04:28:56;;;;;;;10.27;3.70;;;;;;;20.69;89.91;99375.78;5086675;28;20032;-63
2023/07/15 04:31:22;;;;;;;7.28;3.08;;;;;;;20.80;89.23;99373.03;5087697;28;20032;-63
2023/07/15 04:33:50;;;;;;;7.40;2.97;;;;;;;20.87;89.16;99374.22;5086095;28;20035;-63
2023/07/15 04:36:19;;;;;;;3.67;3.00;;;;;;;20.97;88.61;99378.84;5069405;28;20051;-63
2023/07/15 04:38:45;;;;;;;4.60;3.25;;;;;;;21.06;87.92;99380.78;5086787;28;20028;-64
2023/07/15 04:41:10;;;;;;;7.10;3.13;;;;;;;21.15;87.96;99388.13;5086731;28;20032;-63
2023/07/15 04:43:35;;;;;;;6.10;3.22;;;;;;;21.21;87.13;99387.59;5087356;28;20025;-63
2023/07/15 04:46:01;;;;;;;7.57;3.40;;;;;;;21.33;86.08;99397.38;5086381;28;20032;-63
2023/07/15 04:48:27;;;;;;;7.38;3.00;;;;;;;21.40;85.10;99390.44;5091862;28;20016;-63
2023/07/15 04:50:53;;;;;;;6.50;2.67;;;;;;;21.53;85.03;99388.41;5092725;28;20491;-63
2023/07/15 04:53:18;;;;;;;6.40;3.22;;;;;;;21.61;84.77;99396.69;5091777;28;20024;-63
2023/07/15 04:55:48;;;;;;;8.05;3.70;;;;;;;21.71;85.16;99392.19;5091703;28;20475;-63
2023/07/15 04:58:15;;;;;;;5.78;2.50;;;;;;;21.74;84.66;99381.09;5091843;28;20032;-64
2023/07/15 05:00:41;;;;;;;4.00;2.70;;;;;;;21.85;84.15;99379.19;5092059;28;20024;-63
2023/07/15 05:03:07;;;;;;;7.20;3.30;;;;;;;22.03;83.01;99372.13;5091247;28;20055;-63
2023/07/15 05:05:33;;;;;;;5.18;3.10;;;;;;;22.18;81.51;99365.34;5090625;28;20024;-63
2023/07/15 05:08:12;;;;;;;4.57;2.75;;;;;;;22.48;78.89;99380.66;5089917;28;20028;-64
2023/07/15 05:10:39;;;;;;;9.50;4.55;;;;;;;22.81;76.99;99380.31;5089750;28;20498;-64
2023/07/15 05:13:04;;;;;;;4.88;2.60;;;;;;;23.14;75.67;99379.88;5089685;28;20036;-63
2023/07/15 05:15:30;;;;;;;6.22;2.47;;;;;;;23.34;72.95;99384.28;5089592;28;20024;-64
2023/07/15 05:17:55;;;;;;;6.40;2.75;;;;;;;23.59;71.95;99376.53;5091252;28;20537;-63
2023/07/15 05:20:21;;;;;;;5.00;2.83;;;;;;;23.74;70.59;99369.63;5091354;28;20405;-64
2023/07/15 05:22:46;;;;;;;5.97;2.50;;;;;;;23.79;70.01;99367.31;5092217;28;20039;-63
2023/07/15 05:25:12;;;;;;;4.88;2.28;;;;;;;23.79;69.60;99367.31;5091065;28;20028;-64
2023/07/15 05:27:38;;;;;;;7.85;2.78;;;;;;;23.76;70.13;99362.16;5091754;28;20028;-63
2023/07/15 05:30:04;;;;;;;5.60;2.60;;;;;;;23.77;70.53;99370.19;5090957;28;20046;-64
2023/07/15 05:32:29;;;;;;;4.40;2.45;;;;;;;23.86;70.46;99361.13;5090910;28;20031;-63
2023/07/15 05:34:55;;;;;;;4.20;2.05;;;;;;;24.00;69.67;99365.25;5079990;28;20055;-63
2023/07/15 05:37:20;;;;;;;5.35;2.30;;;;;;;24.14;68.93;99351.16;5070450;28;20571;-63
2023/07/15 05:39:46;;;;;;;5.35;2.53;;;;;;;24.32;68.10;99349.31;5070620;28;20031;-64
2023/07/15 05:42:11;;;;;;;6.70;2.70;;;;;;;24.44;66.95;99348.13;5086851;28;20360;-64
2023/07/15 05:44:37;;;;;;;3.90;2.20;;;;;;;24.63;67.56;99342.53;5091423;28;20024;-63
2023/07/15 05:47:02;;;;;;;4.38;2.58;;;;;;;24.80;67.41;99330.84;5090876;28;20032;-64
2023/07/15 05:49:28;;;;;;;4.25;2.30;;;;;;;24.95;66.25;99332.00;5091641;28;20020;-63
2023/07/15 05:51:54;;;;;;;5.97;2.20;;;;;;;25.08;66.32;99327.00;5091416;28;20028;-64
2023/07/15 05:54:19;;;;;;;5.38;2.30;;;;;;;25.35;64.15;99334.22;5090100;28;20119;-64
2023/07/15 05:56:44;;;;;;;5.03;2.30;;;;;;;25.48;63.62;99340.09;5090500;28;20111;-64
2023/07/15 05:59:10;;;;;;;4.35;2.55;;;;;;;25.67;63.31;99337.13;5089731;28;20076;-64
2023/07/15 06:01:35;;;;;;;4.45;2.10;;;;;;;25.72;62.01;99332.06;5085906;28;20024;-64
2023/07/15 06:04:00;;;;;;;5.22;2.95;;;;;;;25.70;61.51;99331.38;5090167;28;20044;-63
2023/07/15 06:06:26;;;;;;;3.53;2.22;;;;;;;25.77;61.60;99319.66;5089262;28;20046;-64
2023/07/15 06:08:51;;;;;;;3.50;2.00;;;;;;;25.98;60.70;99328.28;5090045;28;20025;-63
2023/07/15 06:11:18;;;;;;;4.95;2.65;;;;;;;26.17;60.01;99329.06;5088994;28;20610;-64
2023/07/15 06:13:43;;;;;;;4.97;2.15;;;;;;;26.35;59.62;99329.78;5086454;28;20035;-64
2023/07/15 06:16:09;;;;;;;3.90;2.72;;;;;;;26.51;59.48;99329.81;5088715;28;20023;-64
2023/07/15 06:18:34;;;;;;;3.38;2.08;;;;;;;26.65;59.96;99337.38;5090717;28;20032;-64
2023/07/15 06:21:00;;;;;;;3.80;2.08;;;;;;;26.86;60.40;99340.50;5090444;28;20043;-64
2023/07/15 06:23:25;;;;;;;5.88;2.38;;;;;;;27.14;60.24;99344.63;5089626;28;20122;-64
2023/07/15 06:25:50;;;;;;;3.90;2.30;;;;;;;27.46;59.35;99346.50;5090149;28;20723;-64
2023/07/15 06:28:16;;;;;;;3.85;1.70;;;;;;;27.73;59.51;99333.28;5090209;28;20039;-64
2023/07/15 06:30:41;;;;;;;3.95;2.05;;;;;;;28.08;57.67;99330.13;5084175;28;20051;-64
2023/07/15 06:33:07;;;;;;;5.40;2.25;;;;;;;28.32;56.50;99329.16;5073766;28;20069;-64
2023/07/15 06:35:32;;;;;;;4.20;2.28;;;;;;;28.42;54.17;99336.13;5089941;28;20106;-65
2023/07/15 06:37:58;;;;;;;4.35;1.65;;;;;;;28.26;53.13;99341.69;5090046;28;20681;-64
2023/07/15 06:40:23;;;;;;;6.60;2.50;;;;;;;28.13;53.80;99333.19;5089963;28;20484;-64
2023/07/15 06:42:49;;;;;;;4.60;2.30;;;;;;;28.03;54.94;99338.03;5087620;28;20033;-64
2023/07/15 06:45:19;;;;;;;4.32;1.90;;;;;;;27.96;59.17;99326.06;5088055;28;20111;-64
2023/07/15 06:47:44;;;;;;;3.40;2.15;;;;;;;27.74;60.63;99332.25;5090801;28;20104;-64
2023/07/15 06:50:10;;;;;;;3.65;2.20;;;;;;;27.49;59.29;99333.34;5090260;28;20398;-64
2023/07/15 06:52:35;;;;;;;4.25;2.05;;;;;;;27.37;60.92;99334.72;5084723;28;20032;-64
2023/07/15 06:55:01;;;;;;;5.63;1.98;;;;;;;27.26;62.24;99329.59;5089079;28;20059;-64
2023/07/15 06:57:28;;;;;;;5.20;2.00;;;;;;;27.17;63.54;99344.25;5089446;28;20054;-64
2023/07/15 06:59:53;;;;;;;4.85;2.05;;;;;;;27.05;63.95;99348.38;5088438;28;20375;-64
2023/07/15 07:02:19;;;;;;;3.35;1.90;;;;;;;27.04;66.41;99349.38;5088893;28;20043;-64
2023/07/15 07:04:45;;;;;;;4.05;2.08;;;;;;;27.06;69.19;99342.75;5089179;28;20040;-64
2023/07/15 07:07:10;;;;;;;4.53;2.10;;;;;;;27.08;69.38;99348.03;5089153;28;20035;-64
2023/07/15 07:09:36;;;;;;;5.68;2.25;;;;;;;27.12;69.24;99352.13;5087022;28;20039;-64
2023/07/15 07:12:01;;;;;;;5.75;2.20;;;;;;;27.22;67.91;99347.34;5089373;28;20028;-64
2023/07/15 07:14:26;;;;;;;3.15;1.85;;;;;;;27.38;67.48;99358.28;5088493;28;20028;-63
2023/07/15 07:16:52;;;;;;;3.78;1.83;;;;;;;27.52;66.06;99354.88;5088497;28;20464;-64
2023/07/15 07:19:17;;;;;;;4.93;2.40;;;;;;;27.69;64.67;99351.09;5088862;28;20039;-64
2023/07/15 07:21:43;;;;;;;4.72;2.30;;;;;;;27.99;63.16;99352.22;5087100;28;20039;-64
2023/07/15 07:24:10;;;;;;;7.68;2.15;;;;;;;28.51;61.88;99344.31;5088387;28;20028;-64
2023/07/15 07:26:35;;;;;;;6.32;2.30;;;;;;;28.89;61.16;99354.34;5089009;28;20081;-63
2023/07/15 07:29:01;;;;;;;4.63;1.90;;;;;;;29.20;58.95;99360.63;5087779;28;20060;-64
2023/07/15 07:31:26;;;;;;;2.85;1.73;;;;;;;29.49;57.69;99356.09;5079090;28;20032;-64
2023/07/15 07:33:52;;;;;;;2.88;1.95;;;;;;;29.83;56.81;99368.47;5068987;28;20123;-64
2023/07/15 07:36:17;;;;;;;4.97;1.67;;;;;;;30.26;56.12;99360.28;5086712;28;20028;-64
2023/07/15 07:38:44;;;;;;;5.32;1.83;;;;;;;30.74;53.07;99370.56;5075142;28;20054;-64
2023/07/15 07:41:11;;;;;;;4.53;1.90;;;;;;;30.93;50.89;99371.88;5077404;28;20092;-65
2023/07/15 07:43:38;;;;;;;5.18;2.10;;;;;;;31.19;50.75;99374.91;5090178;28;20024;-64
2023/07/15 07:46:06;;;;;;;3.28;1.90;;;;;;;31.38;49.81;99378.91;5089364;28;20099;-64
2023/07/15 07:48:32;;;;;;;3.22;1.70;;;;;;;31.51;49.06;99382.66;5087564;28;20035;-64
2023/07/15 07:50:59;;;;;;;5.70;2.30;;;;;;;31.80;47.71;99381.59;5088066;28;20046;-65
2023/07/15 07:53:25;;;;;;;3.63;1.90;;;;;;;32.07;47.10;99380.75;5086754;28;20024;-65
2023/07/15 07:55:51;;;;;;;5.50;1.60;;;;;;;32.47;46.70;99381.88;5085595;28;20516;-65
2023/07/15 07:58:17;;;;;;;4.70;1.83;;;;;;;32.71;45.04;99379.44;5086713;28;20028;-65
2023/07/15 08:00:43;;;;;;;4.20;1.67;;;;;;;33.14;44.37;99380.00;5084136;28;20026;-65
2023/07/15 08:03:09;;;;;;;6.55;1.90;;;;;;;33.51;42.99;99384.09;5067304;28;20037;-65
2023/07/15 08:05:39;;;;;;;3.22;1.73;;;;;;;33.14;43.81;99386.38;5067538;28;20027;-66
2023/07/15 08:08:05;;;;;;;3.97;1.95;;;;;;;32.85;43.93;99380.31;5072120;28;20114;-65
2023/07/15 08:10:30;;;;;;;7.25;2.20;;;;;;;33.09;44.22;99383.38;5087932;28;20028;-65
2023/07/15 08:12:55;;;;;;;4.55;1.77;;;;;;;33.11;43.87;99381.25;5088495;28;20490;-65
2023/07/15 08:15:21;;;;;;;3.05;1.67;;;;;;;32.89;44.89;99387.97;5088446;28;20028;-65
2023/07/15 08:17:46;;;;;;;5.03;2.10;;;;;;;32.59;45.85;99386.56;5087281;28;20039;-65
2023/07/15 08:20:12;;;;;;;3.63;1.77;;;;;;;32.30;46.67;99397.84;5087274;28;20030;-65
2023/07/15 08:22:37;;;;;;;4.82;2.20;;;;;;;32.01;48.42;99384.34;5074243;28;20028;-65
2023/07/15 08:25:03;;;;;;;3.85;1.60;;;;;;;31.84;49.71;99388.41;5087582;28;20090;-65
2023/07/15 08:27:29;;;;;;;2.40;1.60;;;;;;;31.63;48.46;99389.28;5087486;28;20094;-65
2023/07/15 08:29:54;;;;;;;4.53;1.98;;;;;;;31.56;49.50;99388.41;5077826;28;20039;-65
2023/07/15 08:32:19;;;;;;;4.07;2.00;;;;;;;31.60;52.26;99392.44;5092248;28;20042;-65
2023/07/15 08:35:03;;;;;;;3.65;1.73;;;;;;;31.69;54.24;99382.16;5092483;28;20131;-65
2023/07/15 08:37:29;;;;;;;6.18;1.92;;;;;;;31.76;53.96;99386.63;5091666;28;20399;-65
2023/07/15 08:39:54;;;;;;;7.50;2.30;;;;;;;31.87;52.67;99382.53;5092632;28;20024;-65
2023/07/15 08:42:20;;;;;;;4.80;1.90;;;;;;;31.97;50.19;99374.78;5091898;28;20086;-66
2023/07/15 08:44:52;;;;;;;4.07;1.90;;;;;;;31.92;49.72;99388.28;5092705;28;20035;-65
2023/07/15 08:47:22;;;;;;;3.45;1.75;;;;;;;31.66;50.49;99410.06;5092109;28;20776;-65
2023/07/15 08:49:49;;;;;;;3.40;1.88;;;;;;;31.20;52.02;99415.09;5091480;28;20528;-65
2023/07/15 08:52:19;;;;;;;6.07;2.47;;;;;;;30.98;55.41;99415.25;5091518;28;20057;-65
2023/07/15 08:54:47;;;;;;;4.50;2.80;;;;;;;30.70;57.35;99417.84;5090502;28;20107;-64
2023/07/15 08:57:12;;;;;;;8.00;2.40;;;;;;;30.44;58.08;99429.34;5091316;28;20028;-65
2023/07/15 08:59:38;;;;;;;4.22;2.22;;;;;;;30.19;57.97;99447.09;5081064;28;20120;-65
2023/07/15 09:02:04;;;;;;;5.63;2.50;;;;;;;29.99;58.17;99445.94;5077623;28;20024;-64
2023/07/15 09:04:29;;;;;;;6.13;1.90;;;;;;;29.76;58.13;99456.09;5080274;28;20127;-64
2023/07/15 09:06:55;;;;;;;4.88;1.77;;;;;;;29.62;61.63;99448.69;5071021;28;20033;-64
2023/07/15 09:09:39;;;;;;;3.10;1.83;;;;;;;29.49;65.36;99438.31;5071713;28;20031;-63
2023/07/15 09:12:08;;;;;;;4.25;2.10;;;;;;;29.52;64.54;99429.72;5083736;28;20036;-62
2023/07/15 09:14:54;;;;;;;2.90;1.95;;;;;;;29.71;64.67;99433.88;5090801;28;20051;-60
2023/07/15 09:17:20;;;;;;;4.60;2.05;;;;;;;30.02;60.08;99453.78;5090383;28;20100;-59
2023/07/15 09:19:47;;;;;;;4.57;2.28;;;;;;;30.73;57.61;99467.75;5089411;28;20111;-60
2023/07/15 09:22:13;;;;;;;6.57;2.35;;;;;;;31.66;54.58;99476.06;5081797;28;20052;-64
2023/07/15 09:24:39;;;;;;;3.38;1.58;;;;;;;32.00;49.88;99492.69;5090967;28;20063;-66
2023/07/15 09:27:05;;;;;;;8.95;2.13;;;;;;;32.10;49.83;99498.69;5085771;28;20074;-66
2023/07/15 09:29:31;;;;;;;4.90;1.95;;;;;;;32.25;47.46;99499.47;5081739;28;20442;-66
2023/07/15 09:31:57;;;;;;;4.60;1.60;;;;;;;33.04;46.15;99496.19;5090336;28;20028;-66
2023/07/15 09:34:24;;;;;;;4.20;2.17;;;;;;;33.71;44.40;99487.88;5090150;28;20036;-66
2023/07/15 09:36:50;;;;;;;7.15;2.20;;;;;;;33.87;43.01;99486.63;5076710;28;20035;-66
2023/07/15 09:39:19;;;;;;;3.78;2.03;;;;;;;33.85;42.42;99488.75;5090821;28;20035;-62
2023/07/15 09:41:58;;;;;;;5.25;1.55;;;;;;;33.91;41.30;99476.84;5078524;28;20016;-63
2023/07/15 09:44:39;;;;;;;4.18;2.45;;;;;;;33.74;42.77;99470.91;5075981;28;20024;-62
2023/07/15 09:47:05;;;;;;;7.07;1.92;;;;;;;33.87;42.81;99475.59;5083069;28;20027;-63
2023/07/15 09:49:32;;;;;;;7.22;2.00;;;;;;;33.81;42.27;99468.16;5074595;28;20054;-63
2023/07/15 09:52:04;;;;;;;5.32;1.80;;;;;;;33.72;42.63;99472.19;5082481;28;20073;-66
2023/07/15 09:54:32;;;;;;;4.90;2.20;;;;;;;33.55;42.41;99477.25;5084824;28;20524;-67
2023/07/15 09:57:03;;;;;;;4.15;1.90;;;;;;;34.05;41.58;99478.59;5079058;28;20434;-65
2023/07/15 09:59:38;;;;;;;4.88;2.30;;;;;;;34.64;41.33;99468.34;5077885;28;20177;-63
2023/07/15 10:02:41;;;;;;;4.50;1.77;;;;;;;35.30;39.86;99468.94;5072559;28;20059;-64
2023/07/15 10:05:09;;;;;;;3.75;2.22;;;;;;;35.89;38.17;99479.66;5085667;28;20675;-65
2023/07/15 10:07:36;;;;;;;5.18;2.10;;;;;;;36.29;37.83;99487.41;5087501;28;20028;-64
2023/07/15 10:10:02;;;;;;;3.58;2.00;;;;;;;36.20;37.33;99480.47;5086194;28;20036;-65
2023/07/15 10:12:31;;;;;;;3.47;1.92;;;;;;;35.79;38.03;99481.00;5069222;28;20029;-62
2023/07/15 10:14:57;;;;;;;3.72;1.80;;;;;;;35.62;36.62;99473.44;5088331;28;20020;-63
2023/07/15 10:17:23;;;;;;;3.75;1.92;;;;;;;35.23;37.04;99466.22;5089809;28;20051;-62
2023/07/15 10:19:50;;;;;;;4.80;2.00;;;;;;;35.11;36.61;99465.19;5090101;28;20062;-62
2023/07/15 10:22:23;;;;;;;3.17;1.58;;;;;;;34.83;37.85;99453.59;5079660;28;20023;-62
2023/07/15 10:24:57;;;;;;;4.22;1.95;;;;;;;34.30;38.60;99450.09;5082476;28;20031;-62
2023/07/15 10:27:30;;;;;;;5.22;2.47;;;;;;;34.09;40.22;99453.09;5072361;28;20060;-62
2023/07/15 10:30:16;;;;;;;6.72;1.92;;;;;;;33.86;38.60;99458.19;5070749;28;20162;-62
2023/07/15 10:33:06;;;;;;;4.13;2.00;;;;;;;33.72;38.80;99444.59;5073579;28;20027;-62
2023/07/15 10:35:33;;;;;;;3.75;1.92;;;;;;;33.57;38.23;99457.75;5070374;28;20558;-61
2023/07/15 10:38:19;;;;;;;3.90;1.77;;;;;;;33.56;39.40;99445.00;5076262;28;20034;-62
2023/07/15 10:40:47;;;;;;;3.50;1.73;;;;;;;33.69;39.15;99439.50;5084066;28;20131;-63
2023/07/15 10:43:16;;;;;;;4.32;2.38;;;;;;;33.77;39.00;99442.06;5073025;28;20544;-62
2023/07/15 10:45:42;;;;;;;3.60;1.85;;;;;;;33.78;38.93;99440.97;5086160;28;20032;-62
2023/07/15 10:48:11;;;;;;;2.63;1.83;;;;;;;33.70;38.99;99430.16;5087554;28;20050;-62
2023/07/15 10:50:38;;;;;;;5.15;2.20;;;;;;;33.61;40.56;99418.47;5086147;28;20036;-63
2023/07/15 10:53:23;;;;;;;4.75;1.92;;;;;;;33.51;38.60;99409.75;5082186;28;20032;-62
2023/07/15 10:56:09;;;;;;;4.75;1.70;;;;;;;33.43;39.06;99411.91;5083227;28;20028;-62
2023/07/15 10:58:35;;;;;;;7.13;3.50;;;;;;;34.02;38.45;99413.59;5059206;28;20098;-63
2023/07/15 11:01:03;;;;;;;3.17;1.80;;;;;;;34.56;37.22;99421.63;5086908;28;20050;-63
2023/07/15 11:03:31;;;;;;;4.75;2.00;;;;;;;35.56;37.97;99414.31;5085079;28;20051;-63
2023/07/15 11:05:58;;;;;;;4.80;1.98;;;;;;;36.44;34.93;99420.59;5079953;28;20031;-63
2023/07/15 11:08:24;;;;;;;3.03;1.80;;;;;;;37.42;34.75;99414.63;5078326;28;20496;-63
2023/07/15 11:10:56;;;;;;;3.30;1.80;;;;;;;38.06;33.13;99419.34;5084787;28;20024;-64
2023/07/15 11:13:21;;;;;;;6.05;1.67;;;;;;;37.72;33.99;99412.69;5067970;28;20028;-63
2023/07/15 11:15:46;;;;;;;5.05;1.92;;;;;;;37.26;34.65;99404.22;5070750;28;20065;-63
2023/07/15 11:18:20;;;;;;;4.13;1.90;;;;;;;36.77;36.51;99391.38;5088138;28;20074;-63
2023/07/15 11:20:46;;;;;;;6.05;2.22;;;;;;;36.51;36.86;99382.56;5085895;28;20016;-63
2023/07/15 11:23:13;;;;;;;3.25;2.00;;;;;;;36.29;35.74;99389.59;5086265;28;20020;-63
2023/07/15 11:25:39;;;;;;;4.57;2.05;;;;;;;36.03;37.43;99382.38;5072534;28;20111;-63
2023/07/15 11:28:05;;;;;;;4.45;1.67;;;;;;;35.86;39.36;99364.69;5067480;28;20588;-63
2023/07/15 11:30:37;;;;;;;4.28;2.10;;;;;;;35.89;38.28;99368.91;5081546;28;20059;-63
2023/07/15 11:33:03;;;;;;;;;;;;;;;36.05;39.00;99357.25;5072727;28;20048;-63
2023/07/15 11:35:33;;;;;;;4.90;2.00;;;;;;;35.92;39.29;99357.38;5071375;28;19959;-63